Time;durP1;ratioP1;P1;durP2;ratioP2;P2;SDS_P1;SDS_P2;PMS_P1;PMS_P2;Temp;Humidity;BMP_temperature;BMP_pressure;BME280_temperature;BME280_humidity;BME280_pressure;Samples;Min_cycle;Max_cycle;Signal;HPM_P1;HPM_P2
2023/02/22 00:00:41;;;;;;;15.83;14.73;;;10.40;99.90;;;;;;5020127;28;20424;-46
2023/02/22 00:03:26;;;;;;;16.10;14.90;;;10.40;99.90;;;;;;5020452;28;20428;-50
2023/02/22 00:05:56;;;;;;;15.17;14.17;;;10.40;99.90;;;;;;5020776;28;20186;-46
2023/02/22 00:08:24;;;;;;;15.70;14.60;;;10.30;99.90;;;;;;5020466;28;20413;-43
2023/02/22 00:10:52;;;;;;;15.70;14.60;;;10.40;99.90;;;;;;5020227;28;20425;-44
2023/02/22 00:13:21;;;;;;;15.40;14.30;;;10.30;99.90;;;;;;5018938;28;20584;-44
2023/02/22 00:15:47;;;;;;;15.40;14.40;;;10.30;99.90;;;;;;5019580;28;20509;-44
2023/02/22 00:18:16;;;;;;;16.23;15.13;;;10.30;99.90;;;;;;5019565;28;20436;-43
2023/02/22 00:20:42;;;;;;;16.10;14.90;;;10.30;99.90;;;;;;5020361;28;20979;-45
2023/02/22 00:23:14;;;;;;;16.70;15.53;;;10.30;99.90;;;;;;5019493;28;20449;-44
2023/02/22 00:25:39;;;;;;;16.90;15.60;;;10.30;99.90;;;;;;5020105;28;20442;-44
2023/02/22 00:28:05;;;;;;;16.77;15.67;;;10.30;99.90;;;;;;5019956;28;20421;-43
2023/02/22 00:30:32;;;;;;;15.57;14.57;;;10.30;99.90;;;;;;5020332;28;20221;-46
2023/02/22 00:32:58;;;;;;;16.07;14.90;;;10.30;99.90;;;;;;5019758;28;20213;-48
2023/02/22 00:35:28;;;;;;;16.47;15.27;;;10.30;99.90;;;;;;5019076;28;20421;-44
2023/02/22 00:37:58;;;;;;;16.13;14.97;;;10.30;99.90;;;;;;5019775;28;20433;-44
2023/02/22 00:40:27;;;;;;;16.70;15.60;;;10.30;99.90;;;;;;5019430;28;20911;-45
2023/02/22 00:42:53;;;;;;;16.83;15.63;;;10.30;99.90;;;;;;5019466;28;20995;-46
2023/02/22 00:45:22;;;;;;;16.27;15.07;;;10.20;99.90;;;;;;5019642;28;20448;-43
2023/02/22 00:47:48;;;;;;;16.03;14.93;;;10.10;99.90;;;;;;5019912;28;20270;-44
2023/02/22 00:50:15;;;;;;;16.60;15.50;;;10.10;99.90;;;;;;5020080;28;20912;-46
2023/02/22 00:52:41;;;;;;;16.10;15.00;;;10.00;99.90;;;;;;5019865;28;20855;-45
2023/02/22 00:55:10;;;;;;;16.07;14.87;;;10.00;99.90;;;;;;5019406;28;20424;-45
2023/02/22 00:57:36;;;;;;;15.43;14.40;;;9.90;99.90;;;;;;5019413;28;20417;-46
2023/02/22 01:00:10;;;;;;;16.60;15.40;;;9.80;99.90;;;;;;5019801;28;20514;-47
2023/02/22 01:02:41;;;;;;;15.83;14.73;;;9.80;99.90;;;;;;5019510;28;20452;-45
2023/02/22 01:05:08;;;;;;;16.00;14.90;;;9.80;99.90;;;;;;5019486;28;20482;-46
2023/02/22 01:07:34;;;;;;;16.40;15.20;;;9.70;99.90;;;;;;5019079;28;20457;-44
2023/02/22 01:10:01;;;;;;;15.80;14.70;;;9.70;99.90;;;;;;5018541;28;20530;-48
2023/02/22 01:12:28;;;;;;;16.00;14.90;;;9.70;99.90;;;;;;5018671;28;20324;-44
2023/02/22 01:14:55;;;;;;;16.10;14.90;;;9.60;99.90;;;;;;5019291;28;20424;-44
2023/02/22 01:17:22;;;;;;;16.40;15.20;;;9.60;99.90;;;;;;5019119;28;20746;-43
2023/02/22 01:19:48;;;;;;;15.03;14.03;;;9.60;99.90;;;;;;5019263;28;20431;-46
2023/02/22 01:22:14;;;;;;;16.33;15.10;;;9.60;99.90;;;;;;5018896;28;20949;-44
2023/02/22 01:24:39;;;;;;;17.10;15.80;;;9.60;99.90;;;;;;5019397;28;20438;-43
2023/02/22 01:27:05;;;;;;;15.47;14.47;;;9.60;99.90;;;;;;5019634;28;20193;-43
2023/02/22 01:29:30;;;;;;;15.97;14.77;;;9.60;99.90;;;;;;5019386;28;21098;-43
2023/02/22 01:31:56;;;;;;;16.10;15.00;;;9.60;99.90;;;;;;5019025;28;20182;-44
2023/02/22 01:34:23;;;;;;;16.20;15.10;;;9.60;99.90;;;;;;5019344;28;20538;-45
2023/02/22 01:36:49;;;;;;;16.10;14.90;;;9.60;99.90;;;;;;5022558;28;20622;-44
2023/02/22 01:39:16;;;;;;;16.20;15.10;;;9.60;99.90;;;;;;5022248;28;20446;-46
2023/02/22 01:41:44;;;;;;;15.47;14.47;;;9.60;99.90;;;;;;5021634;28;20631;-45
2023/02/22 01:44:40;;;;;;;15.57;14.57;;;9.70;99.90;;;;;;5023284;28;21150;-44
2023/02/22 01:47:07;;;;;;;15.43;14.37;;;9.60;99.90;;;;;;5018170;28;20428;-45
2023/02/22 01:49:44;;;;;;;16.00;14.90;;;9.60;99.90;;;;;;5023459;28;21063;-45
2023/02/22 01:52:14;;;;;;;15.17;14.17;;;9.60;99.90;;;;;;5022752;28;20486;-43
2023/02/22 01:54:54;;;;;;;16.00;14.90;;;9.70;99.90;;;;;;5022920;28;20512;-43
2023/02/22 01:57:31;;;;;;;15.77;14.67;;;9.70;99.90;;;;;;5022843;28;20424;-42
2023/02/22 02:00:09;;;;;;;15.83;14.73;;;9.70;99.90;;;;;;5022654;28;20412;-46
2023/02/22 02:02:40;;;;;;;16.10;15.00;;;9.70;99.90;;;;;;5021268;28;20478;-45
2023/02/22 02:05:07;;;;;;;16.10;14.90;;;9.70;99.90;;;;;;5022721;28;20424;-46
2023/02/22 02:07:34;;;;;;;15.90;14.80;;;9.70;99.90;;;;;;5022513;28;20439;-43
2023/02/22 02:10:03;;;;;;;15.03;14.03;;;9.70;99.90;;;;;;5020808;28;20447;-43
2023/02/22 02:12:34;;;;;;;16.10;15.00;;;9.60;99.90;;;;;;5022049;28;20496;-44
2023/02/22 02:15:21;;;;;;;15.70;14.60;;;9.60;99.90;;;;;;5022366;28;21130;-42
2023/02/22 02:17:49;;;;;;;16.30;15.27;;;9.60;99.90;;;;;;5022360;28;20583;-44
2023/02/22 02:20:50;;;;;;;16.40;15.23;;;9.60;99.90;;;;;;5021208;28;20434;-45
2023/02/22 02:23:25;;;;;;;15.93;14.90;;;9.60;99.90;;;;;;5022234;28;20428;-46
2023/02/22 02:26:07;;;;;;;15.80;14.70;;;9.60;99.90;;;;;;5022335;28;20878;-45
2023/02/22 02:28:33;;;;;;;15.20;14.20;;;9.70;99.90;;;;;;5021560;28;20451;-44
2023/02/22 02:31:26;;;;;;;15.60;14.50;;;9.70;99.90;;;;;;5022028;28;20429;-47
2023/02/22 02:34:16;;;;;;;16.43;15.30;;;9.70;99.90;;;;;;5021539;28;20201;-43
2023/02/22 02:36:50;;;;;;;16.40;15.10;;;9.70;99.90;;;;;;5021757;28;20427;-45
2023/02/22 02:39:34;;;;;;;15.77;14.70;;;9.70;99.90;;;;;;5022085;28;20446;-46
2023/02/22 02:42:05;;;;;;;16.13;15.03;;;9.70;99.90;;;;;;5021920;28;20518;-46
2023/02/22 02:44:34;;;;;;;16.90;15.67;;;9.60;99.90;;;;;;5021567;28;20427;-43
2023/02/22 02:47:07;;;;;;;16.30;15.20;;;9.70;99.90;;;;;;5021767;28;20949;-44
2023/02/22 02:50:01;;;;;;;15.70;14.70;;;9.70;99.90;;;;;;5022001;28;20423;-42
2023/02/22 02:52:29;;;;;;;16.37;15.17;;;9.70;99.90;;;;;;5036955;28;20537;-45
2023/02/22 02:54:55;;;;;;;16.17;15.03;;;9.70;99.90;;;;;;5021404;28;20413;-45
2023/02/22 02:57:21;;;;;;;17.27;16.07;;;9.60;99.90;;;;;;5021978;28;20561;-42
2023/02/22 02:59:46;;;;;;;16.67;15.47;;;9.70;99.90;;;;;;5022094;28;21059;-48
2023/02/22 03:02:27;;;;;;;15.93;14.73;;;9.70;99.90;;;;;;5021577;28;20636;-44
2023/02/22 03:05:11;;;;;;;16.13;14.93;;;9.70;99.90;;;;;;5020366;28;20540;-46
2023/02/22 03:07:43;;;;;;;15.80;14.63;;;9.70;99.90;;;;;;5021648;28;20803;-47
2023/02/22 03:10:30;;;;;;;16.93;15.50;;;9.70;99.90;;;;;;5021178;28;20945;-45
2023/02/22 03:13:25;;;;;;;15.73;14.63;;;9.70;99.90;;;;;;5021544;28;20511;-45
2023/02/22 03:15:58;;;;;;;17.20;15.90;;;9.70;99.90;;;;;;5021376;28;20906;-44
2023/02/22 03:18:29;;;;;;;17.10;15.90;;;9.70;99.90;;;;;;5021730;28;20965;-47
2023/02/22 03:21:12;;;;;;;16.70;15.50;;;9.70;99.90;;;;;;5021327;28;20460;-47
2023/02/22 03:23:38;;;;;;;17.93;16.63;;;9.70;99.90;;;;;;5021613;28;20444;-46
2023/02/22 03:26:08;;;;;;;17.00;15.80;;;9.70;99.90;;;;;;5020308;28;20448;-45
2023/02/22 03:28:39;;;;;;;17.50;16.20;;;9.70;99.90;;;;;;5019450;28;20399;-45
2023/02/22 03:31:14;;;;;;;17.43;16.13;;;9.70;99.90;;;;;;5021244;28;20783;-45
2023/02/22 03:33:45;;;;;;;16.50;15.33;;;9.70;99.90;;;;;;5020882;28;21573;-45
2023/02/22 03:36:20;;;;;;;17.80;16.50;;;9.70;99.90;;;;;;5021063;28;20449;-45
2023/02/22 03:38:48;;;;;;;18.17;16.70;;;9.70;99.90;;;;;;5019525;28;20436;-49
2023/02/22 03:41:18;;;;;;;18.33;16.83;;;9.70;99.90;;;;;;5020867;28;20518;-44
2023/02/22 03:43:49;;;;;;;17.57;16.17;;;9.70;99.90;;;;;;5020743;28;20469;-45
2023/02/22 03:46:15;;;;;;;16.63;15.33;;;9.70;99.90;;;;;;5020740;28;20454;-44
2023/02/22 03:48:58;;;;;;;17.47;16.17;;;9.70;99.90;;;;;;5021206;28;20473;-45
2023/02/22 03:51:25;;;;;;;17.03;15.60;;;9.70;99.90;;;;;;5020290;28;20443;-44
2023/02/22 03:53:51;;;;;;;17.03;15.83;;;9.70;99.90;;;;;;5020445;28;20463;-45
2023/02/22 03:56:34;;;;;;;16.13;15.03;;;9.70;99.90;;;;;;5019667;28;20847;-44
2023/02/22 03:59:04;;;;;;;15.53;14.53;;;9.70;99.90;;;;;;5018825;28;20437;-47
2023/02/22 04:01:30;;;;;;;17.67;16.37;;;9.70;99.90;;;;;;5020588;28;20489;-45
2023/02/22 04:03:55;;;;;;;17.03;15.73;;;9.70;99.90;;;;;;5020113;28;20443;-45
2023/02/22 04:06:21;;;;;;;17.47;16.20;;;9.70;99.90;;;;;;5020356;28;20677;-43
2023/02/22 04:08:49;;;;;;;17.33;16.03;;;9.70;99.90;;;;;;5020439;28;20281;-49
2023/02/22 04:11:15;;;;;;;17.13;15.73;;;9.70;99.90;;;;;;5019866;28;20186;-46
2023/02/22 04:13:41;;;;;;;16.27;15.07;;;9.60;99.90;;;;;;5020210;28;20492;-46
2023/02/22 04:16:07;;;;;;;16.43;15.33;;;9.60;99.90;;;;;;5020242;28;20436;-46
2023/02/22 04:18:32;;;;;;;16.93;15.53;;;9.50;99.90;;;;;;5020471;28;20195;-49
2023/02/22 04:20:58;;;;;;;17.67;16.37;;;9.40;99.90;;;;;;5019698;28;20523;-46
2023/02/22 04:23:24;;;;;;;17.50;16.00;;;9.30;99.90;;;;;;5019908;28;20201;-48
2023/02/22 04:25:49;;;;;;;17.17;15.83;;;9.20;99.90;;;;;;5019758;28;20536;-48
2023/02/22 04:28:15;;;;;;;17.67;16.30;;;9.10;99.90;;;;;;5019940;28;20191;-46
2023/02/22 04:30:42;;;;;;;18.23;16.73;;;9.00;99.90;;;;;;5020076;28;20240;-45
2023/02/22 04:33:09;;;;;;;17.27;15.90;;;8.80;99.90;;;;;;5019543;28;20727;-43
2023/02/22 04:35:35;;;;;;;17.70;16.20;;;8.70;99.90;;;;;;5018384;28;20438;-47
2023/02/22 04:38:01;;;;;;;16.80;15.40;;;8.60;99.90;;;;;;5019766;28;20552;-47
2023/02/22 04:40:26;;;;;;;17.53;16.00;;;8.50;99.90;;;;;;5019833;28;20262;-47
2023/02/22 04:42:52;;;;;;;15.90;14.70;;;8.40;99.90;;;;;;5019680;28;20432;-48
2023/02/22 04:45:18;;;;;;;17.20;15.90;;;8.30;99.90;;;;;;5020154;28;20221;-47
2023/02/22 04:47:43;;;;;;;17.93;16.33;;;8.30;99.90;;;;;;5019627;28;20392;-45
2023/02/22 04:50:11;;;;;;;18.37;16.90;;;8.30;99.90;;;;;;5019765;28;20182;-44
2023/02/22 04:52:37;;;;;;;16.47;15.27;;;8.20;99.90;;;;;;5019406;28;20294;-44
2023/02/22 04:55:03;;;;;;;17.40;16.00;;;8.20;99.90;;;;;;5018413;28;20998;-46
2023/02/22 04:57:29;;;;;;;17.03;15.80;;;8.10;99.90;;;;;;5020284;28;20683;-49
2023/02/22 04:59:55;;;;;;;18.40;16.83;;;8.20;99.90;;;;;;5019143;28;20425;-44
2023/02/22 05:02:21;;;;;;;16.87;15.47;;;8.20;99.90;;;;;;5019686;28;20534;-45
2023/02/22 05:04:47;;;;;;;18.47;16.80;;;8.20;99.90;;;;;;5019090;28;20588;-48
2023/02/22 05:07:12;;;;;;;17.10;15.73;;;8.30;99.90;;;;;;5018618;28;20457;-46
2023/02/22 05:09:38;;;;;;;17.73;16.30;;;8.30;99.90;;;;;;5019670;28;20441;-43
2023/02/22 05:12:04;;;;;;;18.00;16.30;;;8.30;99.90;;;;;;5019187;28;20230;-46
2023/02/22 05:14:30;;;;;;;17.80;16.20;;;8.40;99.90;;;;;;5019594;28;20184;-50
2023/02/22 05:16:59;;;;;;;16.70;15.40;;;8.40;99.90;;;;;;5018365;28;20187;-46
2023/02/22 05:19:25;;;;;;;17.00;15.67;;;8.50;99.90;;;;;;5019211;28;20283;-46
2023/02/22 05:21:50;;;;;;;16.63;15.23;;;8.50;99.90;;;;;;5020240;28;20946;-46
2023/02/22 05:24:16;;;;;;;17.47;15.97;;;8.60;99.90;;;;;;5020654;28;20190;-46
2023/02/22 05:26:43;;;;;;;14.73;13.63;;;8.60;99.90;;;;;;5020331;28;20301;-48
2023/02/22 05:29:08;;;;;;;16.60;15.30;;;8.70;99.90;;;;;;5019828;28;20188;-46
2023/02/22 05:31:34;;;;;;;16.10;14.73;;;8.70;99.90;;;;;;5019283;28;20458;-51
2023/02/22 05:34:00;;;;;;;16.07;14.87;;;8.70;99.90;;;;;;5018642;28;20290;-48
2023/02/22 05:36:26;;;;;;;16.80;15.40;;;8.80;99.90;;;;;;5019020;28;20616;-48
2023/02/22 05:38:52;;;;;;;16.53;15.23;;;8.80;99.90;;;;;;5019445;28;20195;-45
2023/02/22 05:41:18;;;;;;;17.60;16.10;;;8.80;99.90;;;;;;5020382;28;20433;-48
2023/02/22 05:43:44;;;;;;;16.90;15.50;;;8.80;99.90;;;;;;5019802;28;20438;-44
2023/02/22 05:46:09;;;;;;;18.00;16.50;;;8.80;99.90;;;;;;5020372;28;20703;-46
2023/02/22 05:48:35;;;;;;;16.87;15.43;;;8.80;99.90;;;;;;5019911;28;20239;-45
2023/02/22 05:51:02;;;;;;;17.00;15.60;;;8.80;99.90;;;;;;5019294;28;20660;-45
2023/02/22 05:53:28;;;;;;;18.07;16.40;;;8.80;99.90;;;;;;5019318;28;20298;-45
2023/02/22 05:55:54;;;;;;;17.60;16.20;;;8.80;99.90;;;;;;5019266;28;20460;-44
2023/02/22 05:58:19;;;;;;;18.20;16.70;;;8.90;99.90;;;;;;5019336;28;20492;-47
2023/02/22 06:00:45;;;;;;;17.47;16.07;;;8.80;99.90;;;;;;5017941;28;20192;-45
2023/02/22 06:03:11;;;;;;;17.53;16.07;;;8.80;99.90;;;;;;5019201;28;20191;-44
2023/02/22 06:05:37;;;;;;;17.20;15.70;;;8.80;99.90;;;;;;5018993;28;20183;-45
2023/02/22 06:08:04;;;;;;;16.87;15.63;;;8.80;99.90;;;;;;5019103;28;20900;-43
2023/02/22 06:10:30;;;;;;;17.17;15.87;;;8.90;99.90;;;;;;5018955;28;20491;-44
2023/02/22 06:12:56;;;;;;;16.87;15.40;;;8.90;99.90;;;;;;5018896;28;20478;-46
2023/02/22 06:15:23;;;;;;;17.37;15.90;;;8.80;99.90;;;;;;5018753;28;20180;-45
2023/02/22 06:17:50;;;;;;;17.10;15.70;;;8.80;99.90;;;;;;5019075;28;20427;-43
2023/02/22 06:20:19;;;;;;;16.47;15.20;;;8.80;99.90;;;;;;5018961;28;20418;-48
2023/02/22 06:22:49;;;;;;;16.23;15.03;;;8.80;99.90;;;;;;5022008;28;20431;-43
2023/02/22 06:25:16;;;;;;;17.47;16.10;;;8.80;99.90;;;;;;5022369;28;20431;-44
2023/02/22 06:27:42;;;;;;;17.73;16.10;;;8.80;99.90;;;;;;5023045;28;20430;-47
2023/02/22 06:30:10;;;;;;;16.97;15.60;;;8.80;99.90;;;;;;5021607;28;20951;-45
2023/02/22 06:32:36;;;;;;;17.20;15.80;;;8.80;99.90;;;;;;5022561;28;20230;-44
2023/02/22 06:35:02;;;;;;;19.30;17.63;;;8.80;99.90;;;;;;5022142;28;20427;-48
2023/02/22 06:37:28;;;;;;;17.93;16.53;;;8.80;99.90;;;;;;5022122;28;20428;-45
2023/02/22 06:39:53;;;;;;;19.60;17.93;;;8.80;99.90;;;;;;5022623;28;20185;-48
2023/02/22 06:42:19;;;;;;;19.13;17.43;;;8.80;99.90;;;;;;5022523;28;20230;-45
2023/02/22 06:44:45;;;;;;;18.13;16.60;;;8.80;99.90;;;;;;5021882;28;20646;-46
2023/02/22 06:47:10;;;;;;;19.20;17.47;;;8.80;99.90;;;;;;5021999;28;20212;-46
2023/02/22 06:49:36;;;;;;;19.33;17.63;;;8.70;99.90;;;;;;5021748;28;20195;-46
2023/02/22 06:52:07;;;;;;;19.20;17.50;;;8.70;99.90;;;;;;5022089;28;20660;-44
2023/02/22 06:54:33;;;;;;;18.70;17.10;;;8.80;99.90;;;;;;5021746;28;20188;-44
2023/02/22 06:56:59;;;;;;;16.80;15.43;;;8.80;99.90;;;;;;5022408;28;20816;-43
2023/02/22 06:59:25;;;;;;;18.73;17.13;;;8.90;99.90;;;;;;5020794;28;20364;-45
2023/02/22 07:01:50;;;;;;;19.77;18.03;;;9.00;99.90;;;;;;5018118;28;20710;-43
2023/02/22 07:04:16;;;;;;;18.40;16.90;;;9.10;99.90;;;;;;5021505;28;20433;-44
2023/02/22 07:06:48;;;;;;;18.73;17.13;;;9.10;99.90;;;;;;5021559;28;20185;-43
2023/02/22 07:09:16;;;;;;;18.73;17.00;;;9.10;99.90;;;;;;5021327;28;20242;-47
2023/02/22 07:11:42;;;;;;;18.63;16.93;;;9.20;99.90;;;;;;5021497;28;20473;-44
2023/02/22 07:14:09;;;;;;;17.23;15.53;;;9.30;99.90;;;;;;5021651;28;20488;-44
2023/02/22 07:16:34;;;;;;;19.00;17.30;;;9.40;99.90;;;;;;5021234;28;20475;-45
2023/02/22 07:19:00;;;;;;;19.30;17.67;;;9.40;99.90;;;;;;5021551;28;20440;-45
2023/02/22 07:21:27;;;;;;;17.77;16.30;;;9.50;99.90;;;;;;5021425;28;20184;-45
2023/02/22 07:23:54;;;;;;;18.77;17.13;;;9.50;99.90;;;;;;5021221;28;20340;-46
2023/02/22 07:26:21;;;;;;;18.10;16.60;;;9.60;99.90;;;;;;5021505;28;20512;-46
2023/02/22 07:28:48;;;;;;;17.80;16.30;;;9.60;99.90;;;;;;5019848;28;20871;-44
2023/02/22 07:31:14;;;;;;;18.70;17.13;;;9.70;99.90;;;;;;5019279;28;20463;-43
2023/02/22 07:33:39;;;;;;;18.27;16.77;;;9.70;99.90;;;;;;5020993;28;20471;-44
2023/02/22 07:36:05;;;;;;;17.07;15.73;;;9.80;99.90;;;;;;5020229;28;20519;-46
2023/02/22 07:38:31;;;;;;;16.50;15.20;;;9.90;99.90;;;;;;5021086;28;20226;-44
2023/02/22 07:40:57;;;;;;;18.10;16.70;;;9.90;99.90;;;;;;5021263;28;20893;-44
2023/02/22 07:43:25;;;;;;;18.03;16.53;;;10.00;99.90;;;;;;5019450;28;20193;-44
2023/02/22 07:45:53;;;;;;;18.60;17.20;;;10.00;99.90;;;;;;5020347;28;20433;-44
2023/02/22 07:48:21;;;;;;;18.90;17.40;;;10.10;99.90;;;;;;5020911;28;20968;-43
2023/02/22 07:50:47;;;;;;;18.57;17.00;;;10.20;99.90;;;;;;5021153;28;20417;-44
2023/02/22 07:53:25;;;;;;;21.10;18.90;;;10.30;99.90;;;;;;5020680;28;20863;-46
2023/02/22 07:55:51;;;;;;;21.73;19.83;;;10.40;99.90;;;;;;5020779;28;20696;-46
2023/02/22 07:58:20;;;;;;;18.90;17.10;;;10.40;99.90;;;;;;5019785;28;20425;-48
2023/02/22 08:00:47;;;;;;;19.80;17.80;;;10.40;99.90;;;;;;5019975;28;20444;-45
2023/02/22 08:03:14;;;;;;;19.40;17.90;;;10.40;99.90;;;;;;5020352;28;20448;-47
2023/02/22 08:05:44;;;;;;;20.47;18.67;;;10.40;99.90;;;;;;5020369;28;20859;-48
2023/02/22 08:08:10;;;;;;;22.57;20.60;;;10.40;99.90;;;;;;5021005;28;20409;-44
2023/02/22 08:10:35;;;;;;;20.80;19.00;;;10.30;99.90;;;;;;5020288;28;20428;-44
2023/02/22 08:13:03;;;;;;;22.17;20.03;;;10.10;99.90;;;;;;5020181;28;20481;-49
2023/02/22 08:15:34;;;;;;;20.07;18.00;;;10.20;99.90;;;;;;5020199;28;20580;-45
2023/02/22 08:18:01;;;;;;;19.87;18.07;;;10.20;99.90;;;;;;5020692;28;20430;-46
2023/02/22 08:20:28;;;;;;;19.80;17.90;;;10.20;99.90;;;;;;5020398;28;20500;-48
2023/02/22 08:22:55;;;;;;;19.13;17.40;;;10.30;99.90;;;;;;5020600;28;20420;-44
2023/02/22 08:25:24;;;;;;;19.63;17.80;;;10.10;99.90;;;;;;5020002;28;20417;-44
2023/02/22 08:27:49;;;;;;;20.07;18.27;;;10.10;99.90;;;;;;5019152;28;20439;-47
2023/02/22 08:30:22;;;;;;;20.60;18.50;;;10.10;99.90;;;;;;5020356;28;20429;-46
2023/02/22 08:32:49;;;;;;;21.00;19.10;;;10.10;99.90;;;;;;5019986;28;20263;-47
2023/02/22 08:35:16;;;;;;;22.10;20.00;;;10.10;99.90;;;;;;5019925;28;20427;-49
2023/02/22 08:37:43;;;;;;;22.30;18.97;;;10.10;99.90;;;;;;5020035;28;20416;-44
2023/02/22 08:40:10;;;;;;;21.53;19.40;;;10.10;99.90;;;;;;5019795;28;20970;-47
2023/02/22 08:42:35;;;;;;;21.30;19.17;;;10.20;99.90;;;;;;5019623;28;20432;-44
2023/02/22 08:45:01;;;;;;;22.03;19.87;;;10.50;99.90;;;;;;5019610;28;20421;-44
2023/02/22 08:47:26;;;;;;;22.93;20.73;;;10.60;99.90;;;;;;5019989;28;20264;-44
2023/02/22 08:49:52;;;;;;;24.37;21.77;;;10.80;99.90;;;;;;5019387;28;20199;-44
2023/02/22 08:52:20;;;;;;;22.53;20.20;;;11.00;99.90;;;;;;5018594;28;20296;-44
2023/02/22 08:54:46;;;;;;;23.00;20.60;;;11.10;99.90;;;;;;5019562;28;20680;-46
2023/02/22 08:57:11;;;;;;;22.60;20.30;;;11.20;99.90;;;;;;5019936;28;20422;-42
2023/02/22 08:59:38;;;;;;;22.90;20.50;;;11.20;99.90;;;;;;5020178;28;20178;-43
2023/02/22 09:02:04;;;;;;;23.73;20.97;;;11.20;99.90;;;;;;5019627;28;20191;-45
2023/02/22 09:04:30;;;;;;;22.67;20.57;;;11.30;99.90;;;;;;5019689;28;20421;-46
2023/02/22 09:06:55;;;;;;;21.80;19.73;;;11.60;99.90;;;;;;5019582;28;20916;-46
2023/02/22 09:09:21;;;;;;;22.40;20.40;;;11.80;99.90;;;;;;5019658;28;20181;-43
2023/02/22 09:11:47;;;;;;;24.57;21.10;;;12.10;99.90;;;;;;5019688;28;20542;-44
2023/02/22 09:14:14;;;;;;;21.63;19.53;;;12.20;99.90;;;;;;5019199;28;20441;-48
2023/02/22 09:16:39;;;;;;;22.97;20.73;;;12.30;99.90;;;;;;5019613;28;20424;-46
2023/02/22 09:19:05;;;;;;;21.10;19.10;;;12.40;99.90;;;;;;5017684;28;20455;-44
2023/02/22 09:21:31;;;;;;;21.90;19.83;;;12.50;99.90;;;;;;5018980;28;20314;-42
2023/02/22 09:23:57;;;;;;;22.70;20.30;;;12.50;99.90;;;;;;5018955;28;20467;-44
2023/02/22 09:26:22;;;;;;;22.03;19.83;;;12.70;99.90;;;;;;5019125;28;20192;-43
2023/02/22 09:28:49;;;;;;;22.80;20.60;;;12.90;99.90;;;;;;5019790;28;20417;-44
2023/02/22 09:31:15;;;;;;;23.30;21.00;;;13.00;99.90;;;;;;5019305;28;20581;-43
2023/02/22 09:33:40;;;;;;;20.73;18.53;;;12.80;99.90;;;;;;5019373;28;20468;-44
2023/02/22 09:36:06;;;;;;;22.23;20.13;;;13.00;99.90;;;;;;5019123;28;20685;-44
2023/02/22 09:38:32;;;;;;;21.87;19.73;;;13.20;99.90;;;;;;5019256;28;20421;-43
2023/02/22 09:41:11;;;;;;;21.47;19.47;;;13.30;99.90;;;;;;5019417;28;20430;-43
2023/02/22 09:44:18;;;;;;;22.63;20.53;;;13.40;99.90;;;;;;5019238;28;20256;-47
2023/02/22 09:46:46;;;;;;;20.80;18.80;;;13.50;99.90;;;;;;5033895;28;20460;-43
2023/02/22 09:49:14;;;;;;;19.33;17.50;;;13.70;99.90;;;;;;5018650;28;20413;-44
2023/02/22 09:51:49;;;;;;;18.80;17.00;;;13.80;99.90;;;;;;5018134;28;20437;-48
2023/02/22 09:54:36;;;;;;;21.97;20.10;;;13.80;99.90;;;;;;5019019;28;20453;-48
2023/02/22 09:57:15;;;;;;;21.50;19.60;;;13.60;99.90;;;;;;5021637;28;20528;-45
2023/02/22 10:00:12;;;;;;;19.77;17.90;;;13.80;99.90;;;;;;5023032;28;20466;-46
2023/02/22 10:02:45;;;;;;;21.83;19.93;;;13.70;99.90;;;;;;5023530;28;20862;-46
2023/02/22 10:05:40;;;;;;;20.67;18.83;;;13.70;99.90;;;;;;5022876;28;20502;-45
2023/02/22 10:08:14;;;;;;;20.30;18.60;;;13.90;99.90;;;;;;5022635;28;20437;-45
2023/02/22 10:10:46;;;;;;;19.90;18.10;;;14.10;99.90;;;;;;5023045;28;20428;-47
2023/02/22 10:13:17;;;;;;;20.03;18.30;;;14.20;99.90;;;;;;5022614;28;20477;-44
2023/02/22 10:15:50;;;;;;;20.93;19.23;;;14.60;99.90;;;;;;5022748;28;20427;-45
2023/02/22 10:18:37;;;;;;;20.83;19.03;;;15.00;99.90;;;;;;5022530;28;20756;-45
2023/02/22 10:21:18;;;;;;;19.00;17.40;;;15.00;98.80;;;;;;5020184;28;20878;-50
2023/02/22 10:24:15;;;;;;;20.40;18.70;;;15.20;98.00;;;;;;5022289;28;20531;-44
2023/02/22 10:26:43;;;;;;;19.67;18.00;;;15.00;97.70;;;;;;5022223;28;20630;-47
2023/02/22 10:29:29;;;;;;;21.60;19.77;;;15.00;97.60;;;;;;5022746;28;20816;-44
2023/02/22 10:32:02;;;;;;;18.40;16.90;;;14.90;97.00;;;;;;5022382;28;20508;-46
2023/02/22 10:34:40;;;;;;;18.70;17.20;;;14.70;96.80;;;;;;5022196;28;20476;-44
2023/02/22 10:37:28;;;;;;;18.53;17.03;;;14.70;97.50;;;;;;5022403;28;20452;-46
2023/02/22 10:40:16;;;;;;;17.77;16.47;;;14.70;97.00;;;;;;5020974;28;20425;-44
2023/02/22 10:42:42;;;;;;;18.90;17.30;;;14.70;97.00;;;;;;5022139;28;20433;-43
2023/02/22 10:45:33;;;;;;;16.40;15.20;;;14.40;97.40;;;;;;5021946;28;21180;-46
2023/02/22 10:48:07;;;;;;;16.73;15.43;;;14.30;96.50;;;;;;5021262;28;20421;-45
2023/02/22 10:50:34;;;;;;;15.23;13.83;;;13.90;96.50;;;;;;5020184;28;20429;-45
2023/02/22 10:52:59;;;;;;;16.13;15.07;;;13.90;96.00;;;;;;5021424;28;20464;-43
2023/02/22 10:55:26;;;;;;;15.40;14.37;;;13.80;96.80;;;;;;5021891;28;20448;-44
2023/02/22 10:58:03;;;;;;;16.57;15.30;;;14.00;97.00;;;;;;5021723;28;20186;-49
2023/02/22 11:00:31;;;;;;;15.67;14.37;;;14.10;96.40;;;;;;5021744;28;20432;-45
2023/02/22 11:02:59;;;;;;;17.23;15.93;;;14.20;96.40;;;;;;5021899;28;20436;-44
2023/02/22 11:05:39;;;;;;;16.63;15.53;;;14.50;96.80;;;;;;5022195;28;20826;-44
2023/02/22 11:08:19;;;;;;;16.17;15.07;;;14.60;95.50;;;;;;5021676;28;20793;-46
2023/02/22 11:10:50;;;;;;;17.40;16.30;;;14.80;95.10;;;;;;5020752;28;20441;-47
2023/02/22 11:13:24;;;;;;;17.13;15.93;;;14.90;94.80;;;;;;5021149;28;20481;-47
2023/02/22 11:15:50;;;;;;;16.20;15.10;;;15.00;94.70;;;;;;5021356;28;20914;-49
2023/02/22 11:18:37;;;;;;;15.53;14.53;;;15.10;94.80;;;;;;5020795;28;20452;-44
2023/02/22 11:21:11;;;;;;;16.23;15.13;;;15.20;94.20;;;;;;5021014;28;20859;-49
2023/02/22 11:23:39;;;;;;;15.03;13.93;;;15.20;93.10;;;;;;5020195;28;20967;-43
2023/02/22 11:26:15;;;;;;;15.70;14.70;;;15.10;92.60;;;;;;5020809;28;20775;-43
2023/02/22 11:28:49;;;;;;;15.30;14.30;;;15.20;93.00;;;;;;5021030;28;20510;-43
2023/02/22 11:31:15;;;;;;;15.30;14.30;;;15.30;93.20;;;;;;5021227;28;20417;-44
2023/02/22 11:33:51;;;;;;;15.10;13.90;;;15.40;92.60;;;;;;5020715;28;20464;-45
2023/02/22 11:36:36;;;;;;;16.37;15.27;;;15.40;92.10;;;;;;5020815;28;20609;-43
2023/02/22 11:39:04;;;;;;;16.50;15.40;;;15.50;91.90;;;;;;5020603;28;20500;-44
2023/02/22 11:41:33;;;;;;;15.37;14.37;;;15.50;91.90;;;;;;5020854;28;20814;-43
2023/02/22 11:44:31;;;;;;;15.60;14.60;;;15.50;91.30;;;;;;5021096;28;20427;-43
2023/02/22 11:47:05;;;;;;;15.10;14.20;;;15.40;91.30;;;;;;5002360;28;21189;-43
2023/02/22 11:49:37;;;;;;;14.40;13.60;;;15.40;91.40;;;;;;5021013;28;20436;-46
2023/02/22 11:52:27;;;;;;;14.03;13.03;;;15.50;89.50;;;;;;5020067;28;20477;-45
2023/02/22 11:55:20;;;;;;;15.27;14.27;;;15.50;88.20;;;;;;5020923;28;20540;-45
2023/02/22 11:58:14;;;;;;;14.70;13.80;;;15.50;90.20;;;;;;5020997;28;20405;-46
2023/02/22 12:01:01;;;;;;;13.43;12.70;;;15.60;88.20;;;;;;5018840;28;20443;-44
2023/02/22 12:03:47;;;;;;;13.23;12.53;;;15.60;87.00;;;;;;5020522;28;20484;-44
2023/02/22 12:06:39;;;;;;;13.33;12.63;;;15.60;88.30;;;;;;5020622;28;20734;-46
2023/02/22 12:09:27;;;;;;;12.83;12.13;;;15.80;84.30;;;;;;5020215;28;20723;-47
2023/02/22 12:12:23;;;;;;;13.30;12.60;;;15.90;84.20;;;;;;5014899;28;20946;-44
2023/02/22 12:14:48;;;;;;;11.73;11.13;;;15.80;84.90;;;;;;5020570;28;20785;-49
2023/02/22 12:17:24;;;;;;;13.70;13.00;;;15.90;84.60;;;;;;5020413;28;20417;-45
2023/02/22 12:20:21;;;;;;;13.40;12.70;;;16.00;83.70;;;;;;5019789;28;20248;-44
2023/02/22 12:23:13;;;;;;;13.37;12.47;;;16.10;83.00;;;;;;5010446;28;20468;-44
2023/02/22 12:25:48;;;;;;;12.50;11.90;;;16.10;82.40;;;;;;5020624;28;20432;-45
2023/02/22 12:28:20;;;;;;;11.47;10.87;;;16.10;81.50;;;;;;5018840;28;20838;-46
2023/02/22 12:30:54;;;;;;;11.70;11.07;;;16.10;83.10;;;;;;5019096;28;20441;-49
2023/02/22 12:33:26;;;;;;;13.13;12.43;;;16.00;82.70;;;;;;5020151;28;20550;-46
2023/02/22 12:35:55;;;;;;;12.83;12.03;;;15.90;81.50;;;;;;5020068;28;20570;-46
2023/02/22 12:38:43;;;;;;;13.07;12.37;;;15.90;81.00;;;;;;5019920;28;20421;-43
2023/02/22 12:41:18;;;;;;;12.80;12.10;;;15.80;80.30;;;;;;5019645;28;20419;-49
2023/02/22 12:43:53;;;;;;;12.83;12.13;;;15.70;81.70;;;;;;5018341;28;21030;-46
2023/02/22 12:46:25;;;;;;;12.60;11.80;;;15.80;82.40;;;;;;5019484;28;20448;-46
2023/02/22 12:48:53;;;;;;;11.37;10.77;;;15.70;83.20;;;;;;5019217;28;21121;-47
2023/02/22 12:51:49;;;;;;;12.53;11.80;;;15.40;81.10;;;;;;5019761;28;20547;-44